Time;durP1;ratioP1;P1;durP2;ratioP2;P2;SDS_P1;SDS_P2;PMS_P1;PMS_P2;Temp;Humidity;BMP_temperature;BMP_pressure;BME280_temperature;BME280_humidity;BME280_pressure;Samples;Min_cycle;Max_cycle;Signal;HPM_P1;HPM_P2
2022/12/15 00:39:43;;;;;;;0.70;0.70;;;;;;;-3.25;63.98;100095.28;5149250;28;20589;-81
2022/12/15 00:42:14;;;;;;;0.50;0.50;;;;;;;-3.25;64.03;100110.69;5152253;28;20146;-82
2022/12/15 00:44:44;;;;;;;0.40;0.40;;;;;;;-3.33;63.63;100113.13;5150106;28;20042;-82
2022/12/15 00:47:15;;;;;;;0.30;0.30;;;;;;;-3.30;63.85;100106.31;5152217;28;20033;-82
2022/12/15 01:21:04;;;;;;;0.65;0.65;;;;;;;-3.51;63.75;100128.13;5166645;28;20064;-83
2022/12/15 01:23:35;;;;;;;0.93;0.93;;;;;;;-3.48;63.86;100129.06;5150717;28;20037;-83
2022/12/15 01:26:06;;;;;;;0.38;0.38;;;;;;;-3.47;63.65;100129.94;5156593;28;20043;-83
2022/12/15 01:28:36;;;;;;;2.10;1.58;;;;;;;-3.46;63.98;100141.06;5131871;28;20127;-83
2022/12/15 01:31:11;;;;;;;0.40;0.40;;;;;;;-3.45;63.51;100145.34;5177061;28;20042;-83
2022/12/15 01:33:42;;;;;;;2.78;2.47;;;;;;;-3.50;63.36;100146.09;5150461;28;20643;-83
2022/12/15 01:36:13;;;;;;;1.67;1.63;;;;;;;-3.50;64.04;100151.22;5146191;28;20037;-81
2022/12/15 01:38:43;;;;;;;2.63;2.42;;;;;;;-3.50;64.18;100146.09;5149900;28;20053;-83
2022/12/15 01:41:14;;;;;;;1.92;1.83;;;;;;;-3.49;63.67;100150.41;5134852;28;20102;-82
2022/12/15 01:43:45;;;;;;;5.18;1.67;;;;;;;-3.49;63.86;100149.56;5154387;28;20073;-82
2022/12/15 01:46:18;;;;;;;0.63;0.63;;;;;;;-3.48;63.50;100154.72;5169599;28;20030;-81
2022/12/15 01:49:14;;;;;;;2.10;1.98;;;;;;;-3.51;63.70;100170.03;5135397;28;20060;-82
2022/12/15 01:51:51;;;;;;;1.80;1.70;;;;;;;-3.53;63.96;100166.56;5152024;28;20027;-82
2022/12/15 01:54:36;;;;;;;1.88;1.35;;;;;;;-3.62;64.07;100171.50;5163658;28;20752;-82
2022/12/15 01:57:21;;;;;;;2.33;2.17;;;;;;;-3.70;64.21;100170.47;5144980;28;20421;-83
2022/12/15 01:59:56;;;;;;;1.02;1.02;;;;;;;-3.68;64.32;100172.22;5183811;28;20054;-82
2022/12/15 02:02:29;;;;;;;2.15;2.05;;;;;;;-3.68;64.30;100179.94;5150196;28;20042;-82
2022/12/15 02:05:00;;;;;;;0.55;0.55;;;;;;;-3.72;64.37;100175.56;5130501;28;20042;-82
2022/12/15 02:07:31;;;;;;;2.55;2.45;;;;;;;-3.71;64.45;100171.31;5152270;28;20026;-82
2022/12/15 02:10:06;;;;;;;0.40;0.40;;;;;;;-3.73;64.70;100167.81;5166857;28;20285;-81
2022/12/15 02:12:40;;;;;;;3.63;3.35;;;;;;;-3.76;64.66;100168.63;5133543;28;20034;-83
2022/12/15 02:15:37;;;;;;;0.68;0.68;;;;;;;-3.68;64.39;100171.38;5149097;28;20204;-80
2022/12/15 02:18:24;;;;;;;4.43;4.13;;;;;;;-3.67;64.27;100179.09;5145475;28;20041;-82
2022/12/15 02:21:22;;;;;;;2.05;1.95;;;;;;;-3.70;64.44;100173.03;5149086;28;20042;-81
2022/12/15 02:24:31;;;;;;;1.55;1.50;;;;;;;-3.69;64.53;100174.78;5154543;28;20121;-82
2022/12/15 02:27:05;;;;;;;0.68;0.68;;;;;;;-3.69;64.64;100170.50;5157539;28;20237;-82
2022/12/15 02:29:44;;;;;;;1.02;1.02;;;;;;;-3.70;64.77;100173.88;5156827;28;20034;-83
2022/12/15 02:32:25;;;;;;;0.55;0.55;;;;;;;-3.69;64.79;100167.94;5126895;28;20035;-82
2022/12/15 02:35:07;;;;;;;4.22;3.88;;;;;;;-3.76;65.25;100172.91;5151118;28;20238;-82
2022/12/15 02:37:39;;;;;;;0.93;0.93;;;;;;;-3.73;65.10;100173.84;5145915;28;20088;-82
2022/12/15 02:40:10;;;;;;;0.77;0.77;;;;;;;-3.77;65.50;100166.91;5146274;28;20046;-82
2022/12/15 02:42:56;;;;;;;0.75;0.75;;;;;;;-3.71;65.33;100176.44;5130536;28;20053;-82
2022/12/15 02:45:53;;;;;;;1.20;1.20;;;;;;;-3.70;65.09;100180.72;5144977;28;20038;-81
2022/12/15 02:48:36;;;;;;;3.10;2.90;;;;;;;-3.69;65.72;100197.84;5151234;28;20053;-82
2022/12/15 02:51:15;;;;;;;1.10;1.10;;;;;;;-3.75;65.43;100195.13;5164665;28;20045;-81
2022/12/15 02:54:06;;;;;;;0.70;0.68;;;;;;;-3.69;65.13;100197.84;5147824;28;20041;-83
2022/12/15 02:56:45;;;;;;;2.58;2.47;;;;;;;-3.71;65.04;100191.81;5155792;28;20037;-82
2022/12/15 02:59:24;;;;;;;2.05;1.70;;;;;;;-3.70;65.39;100184.16;5162079;28;20096;-82
2022/12/15 03:01:59;;;;;;;3.38;3.17;;;;;;;-3.64;64.78;100199.69;5161668;28;20323;-81
2022/12/15 03:04:32;;;;;;;0.77;0.77;;;;;;;-3.61;64.67;100200.56;5150075;28;20057;-81
2022/12/15 03:07:07;;;;;;;3.97;3.72;;;;;;;-3.66;64.91;100196.22;5126011;28;20035;-83
2022/12/15 03:09:37;;;;;;;1.27;1.27;;;;;;;-3.73;65.58;100202.03;5148347;28;20670;-82
2022/12/15 03:12:09;;;;;;;0.73;0.73;;;;;;;-3.75;65.34;100202.81;5150106;28;20050;-81
2022/12/15 03:14:39;;;;;;;0.40;0.40;;;;;;;-3.64;65.77;100207.38;5149028;28;20117;-82
2022/12/15 03:17:10;;;;;;;7.28;2.83;;;;;;;-3.66;65.60;100203.03;5148855;28;20052;-83
2022/12/15 03:19:43;;;;;;;1.00;1.00;;;;;;;-3.67;65.60;100211.53;5148839;28;20044;-82
2022/12/15 03:22:13;;;;;;;2.15;2.05;;;;;;;-3.69;65.69;100216.66;5151593;28;20451;-83
2022/12/15 03:24:44;;;;;;;2.80;2.60;;;;;;;-3.65;65.43;100222.72;5148896;28;20127;-83
2022/12/15 03:27:14;;;;;;;5.47;2.47;;;;;;;-3.60;65.21;100226.28;5148247;28;20408;-81
2022/12/15 03:29:45;;;;;;;2.45;2.25;;;;;;;-3.71;65.91;100223.44;5135842;28;20307;-82
2022/12/15 03:32:15;;;;;;;1.52;1.20;;;;;;;-3.62;65.41;100227.94;5160784;28;20026;-81
2022/12/15 03:34:45;;;;;;;6.22;1.52;;;;;;;-3.57;64.74;100234.00;5170749;28;20053;-82
2022/12/15 03:37:16;;;;;;;1.70;1.65;;;;;;;-3.54;65.10;100226.41;5149585;28;20042;-82
2022/12/15 03:39:46;;;;;;;3.85;3.55;;;;;;;-3.59;65.31;100222.84;5148067;28;20052;-81
2022/12/15 03:42:47;;;;;;;0.60;0.60;;;;;;;-3.63;65.55;100226.19;5164317;28;20030;-83
2022/12/15 03:45:08;;;;;;;2.20;2.10;;;;;;;-3.60;65.40;100225.38;5180544;28;20042;-83
2022/12/15 03:47:42;;;;;;;4.57;3.80;;;;;;;-3.54;64.92;100226.41;5142355;28;20041;-81
2022/12/15 03:50:15;;;;;;;1.58;1.08;;;;;;;-3.53;65.37;100235.81;5164352;28;20034;-82
2022/12/15 03:52:51;;;;;;;2.90;1.67;;;;;;;-3.51;65.00;100225.59;5169232;28;20381;-82
2022/12/15 03:55:23;;;;;;;1.55;1.55;;;;;;;-3.52;65.07;100229.88;5157962;28;20049;-82
2022/12/15 03:57:54;;;;;;;0.98;0.98;;;;;;;-3.51;64.81;100228.16;5166532;28;20037;-82
2022/12/15 04:00:25;;;;;;;0.52;0.52;;;;;;;-3.52;64.85;100229.00;5148193;28;20058;-81
2022/12/15 04:02:56;;;;;;;1.08;1.08;;;;;;;-3.62;65.15;100227.94;5164161;28;20022;-82
2022/12/15 04:05:31;;;;;;;0.82;0.82;;;;;;;-3.60;64.88;100240.78;5163736;28;20054;-82
2022/12/15 04:08:03;;;;;;;0.50;0.50;;;;;;;-3.60;65.17;100241.66;5136876;28;20065;-83
2022/12/15 04:10:34;;;;;;;0.60;0.60;;;;;;;-3.61;65.34;100242.47;5147093;28;20069;-81
2022/12/15 04:13:07;;;;;;;2.78;2.67;;;;;;;-3.55;64.71;100249.47;5151635;28;20111;-82
2022/12/15 04:15:39;;;;;;;0.55;0.55;;;;;;;-3.56;64.64;100248.56;5151658;28;20145;-82
2022/12/15 04:18:10;;;;;;;0.80;0.80;;;;;;;-3.59;64.80;100258.75;5145531;28;20073;-81
2022/12/15 04:20:40;;;;;;;0.52;0.52;;;;;;;-3.58;64.91;100254.50;5150576;28;20042;-83
2022/12/15 04:23:12;;;;;;;2.20;2.08;;;;;;;-3.63;65.11;100246.69;5136543;28;20034;-82
2022/12/15 05:33:37;;;;;;;3.97;3.67;;;;;;;-4.07;64.22;100273.00;5151153;28;20245;-80
2022/12/15 05:36:08;;;;;;;1.92;1.83;;;;;;;-4.16;64.93;100273.63;5184083;28;20046;-79
2022/12/15 05:38:38;;;;;;;0.85;0.85;;;;;;;-4.03;64.89;100282.50;5165434;28;20262;-81
2022/12/15 05:41:09;;;;;;;0.77;0.75;;;;;;;-4.08;64.32;100288.31;5163824;28;20037;-81
2022/12/15 05:43:39;;;;;;;2.15;2.05;;;;;;;-4.09;64.38;100296.88;5150466;28;20573;-80
2022/12/15 05:46:10;;;;;;;1.75;1.70;;;;;;;-4.14;64.80;100295.03;5168938;28;20049;-80
2022/12/15 05:48:41;;;;;;;0.35;0.35;;;;;;;-4.12;64.44;100293.38;5164993;28;20057;-81
2022/12/15 05:51:13;;;;;;;2.78;2.58;;;;;;;-4.15;64.76;100288.16;5151401;28;20109;-79
2022/12/15 05:53:43;;;;;;;3.35;1.80;;;;;;;-4.16;64.74;100294.13;5168423;28;20662;-79
2022/12/15 05:56:14;;;;;;;1.63;1.60;;;;;;;-4.14;64.65;100295.03;5166115;28;20033;-80
2022/12/15 05:58:44;;;;;;;2.05;1.95;;;;;;;-4.15;64.79;100303.53;5134793;28;20038;-81
2022/12/15 06:01:17;;;;;;;0.50;0.50;;;;;;;-4.12;64.69;100303.63;5145729;28;20421;-80
2022/12/15 06:03:47;;;;;;;6.85;5.35;;;;;;;-4.09;64.88;100307.13;5141573;28;20652;-80
2022/12/15 06:06:19;;;;;;;2.17;1.85;;;;;;;-4.11;64.45;100302.81;5152446;28;20033;-80
2022/12/15 06:08:49;;;;;;;1.52;1.50;;;;;;;-4.14;64.52;100305.28;5165795;28;20074;-80
2022/12/15 06:11:21;;;;;;;0.73;0.73;;;;;;;-4.15;64.56;100308.66;5149731;28;20095;-79
2022/12/15 06:13:54;;;;;;;11.52;6.60;;;;;;;-4.17;64.19;100305.19;5160587;28;20041;-80
2022/12/15 06:16:26;;;;;;;4.10;3.17;;;;;;;-4.20;64.59;100310.25;5150780;28;20035;-81
2022/12/15 06:19:00;;;;;;;0.88;0.88;;;;;;;-4.19;64.49;100301.75;5159423;28;20045;-79
2022/12/15 06:21:36;;;;;;;0.50;0.50;;;;;;;-4.20;64.47;100315.38;5158140;28;20042;-80
2022/12/15 06:24:07;;;;;;;9.68;7.68;;;;;;;-4.24;64.63;100313.53;5144461;28;20046;-80
2022/12/15 06:26:39;;;;;;;3.88;3.65;;;;;;;-4.27;64.64;100323.72;5148787;28;20034;-80
2022/12/15 06:29:10;;;;;;;5.50;4.18;;;;;;;-4.27;64.57;100319.47;5167049;28;20034;-81
2022/12/15 06:31:41;;;;;;;1.25;1.25;;;;;;;-4.26;64.80;100330.59;5162871;28;20121;-80
2022/12/15 06:34:14;;;;;;;0.82;0.82;;;;;;;-4.28;64.35;100315.16;5159971;28;20070;-80
2022/12/15 06:36:45;;;;;;;3.88;3.15;;;;;;;-4.24;64.25;100315.25;5143818;28;20022;-81
2022/12/15 06:39:15;;;;;;;1.08;1.08;;;;;;;-4.32;64.73;100312.47;5166612;28;20190;-78
2022/12/15 06:41:46;;;;;;;0.70;0.70;;;;;;;-4.27;64.14;100309.22;5165886;28;20121;-80
2022/12/15 06:44:16;;;;;;;1.23;1.23;;;;;;;-4.31;64.29;100309.97;5151355;28;20038;-79
2022/12/15 06:46:47;;;;;;;4.43;3.97;;;;;;;-4.32;64.87;100310.81;5149630;28;20038;-79
2022/12/15 06:49:17;;;;;;;0.90;0.90;;;;;;;-4.27;64.49;100313.47;5166234;28;20642;-81
2022/12/15 06:51:48;;;;;;;0.40;0.40;;;;;;;-4.29;64.48;100312.56;5161806;28;20179;-80
2022/12/15 06:54:19;;;;;;;0.32;0.32;;;;;;;-4.27;64.54;100308.38;5149619;28;20049;-80
2022/12/15 06:56:49;;;;;;;1.55;1.50;;;;;;;-4.28;64.77;100312.59;5167966;28;20027;-80
2022/12/15 06:59:20;;;;;;;0.52;0.52;;;;;;;-4.30;64.68;100319.41;5157382;28;20045;-80
2022/12/15 07:01:50;;;;;;;1.75;1.65;;;;;;;-4.28;64.52;100327.13;5147477;28;20041;-79
2022/12/15 07:04:21;;;;;;;0.52;0.52;;;;;;;-4.27;64.50;100324.59;5151871;28;20417;-80
2022/12/15 07:06:51;;;;;;;1.38;1.30;;;;;;;-4.26;64.46;100320.34;5160119;28;20038;-80
2022/12/15 07:09:24;;;;;;;2.45;2.35;;;;;;;-4.27;64.50;100323.72;5158189;28;20042;-80
2022/12/15 07:11:55;;;;;;;0.65;0.65;;;;;;;-4.24;64.34;100336.59;5172895;28;20057;-81
2022/12/15 07:14:26;;;;;;;2.78;2.58;;;;;;;-4.31;64.56;100329.59;5174336;28;20042;-80
2022/12/15 07:16:56;;;;;;;1.15;1.15;;;;;;;-4.29;64.42;100335.63;5177691;28;20026;-79
2022/12/15 07:19:27;;;;;;;0.50;0.50;;;;;;;-4.34;64.43;100334.66;5170222;28;20054;-80
2022/12/15 07:21:58;;;;;;;0.40;0.40;;;;;;;-4.37;64.46;100343.09;5166812;28;20105;-79
2022/12/15 07:24:29;;;;;;;1.00;1.00;;;;;;;-4.37;64.72;100342.22;5131765;28;20540;-79
2022/12/15 07:26:59;;;;;;;0.75;0.75;;;;;;;-4.38;64.50;100349.06;5147758;28;20022;-80
2022/12/15 07:29:30;;;;;;;1.27;1.27;;;;;;;-4.39;64.32;100343.88;5161841;28;20038;-79
2022/12/15 07:32:00;;;;;;;1.92;1.85;;;;;;;-4.45;64.80;100360.81;5142766;28;20038;-80
2022/12/15 07:34:32;;;;;;;0.80;0.80;;;;;;;-4.43;64.80;100354.06;5147080;28;20556;-79
2022/12/15 07:37:02;;;;;;;0.50;0.50;;;;;;;-4.43;64.31;100358.28;5152149;28;20031;-79
2022/12/15 07:39:33;;;;;;;1.98;1.88;;;;;;;-4.49;64.59;100353.00;5165802;28;20035;-79
2022/12/15 07:42:03;;;;;;;0.73;0.73;;;;;;;-4.49;64.73;100351.28;5162770;28;20444;-79
2022/12/15 07:44:33;;;;;;;0.50;0.50;;;;;;;-4.48;64.51;100360.72;5147723;28;20381;-78
2022/12/15 07:47:04;;;;;;;0.50;0.50;;;;;;;-4.51;64.57;100365.78;5147710;28;20399;-79
2022/12/15 07:49:34;;;;;;;0.45;0.45;;;;;;;-4.48;64.77;100368.41;5160818;28;20073;-78
2022/12/15 07:52:05;;;;;;;0.60;0.60;;;;;;;-4.46;64.22;100360.78;5132247;28;20635;-79
2022/12/15 07:54:36;;;;;;;0.88;0.88;;;;;;;-4.50;64.70;100356.38;5162766;28;20034;-79
2022/12/15 07:57:06;;;;;;;0.30;0.30;;;;;;;-4.49;64.86;100358.13;5160697;28;20117;-79
2022/12/15 07:59:37;;;;;;;1.75;1.65;;;;;;;-4.45;64.80;100358.25;5144525;28;20031;-79
2022/12/15 08:02:11;;;;;;;1.10;1.10;;;;;;;-4.50;64.75;100357.25;5142493;28;20667;-80
2022/12/15 08:04:42;;;;;;;0.80;0.80;;;;;;;-4.46;64.69;100359.09;5156352;28;21011;-79
2022/12/15 08:07:12;;;;;;;0.70;0.70;;;;;;;-4.49;64.36;100364.09;5164137;28;20119;-80
2022/12/15 08:09:43;;;;;;;1.88;1.67;;;;;;;-4.43;64.65;100358.28;5158797;28;20034;-80
2022/12/15 08:12:15;;;;;;;2.25;2.15;;;;;;;-4.45;64.76;100362.50;5162100;28;20033;-80
2022/12/15 08:14:46;;;;;;;0.90;0.90;;;;;;;-4.46;64.57;100353.09;5167231;28;20046;-79
2022/12/15 08:17:17;;;;;;;1.15;1.15;;;;;;;-4.43;64.76;100364.31;5149997;28;20031;-79
2022/12/15 08:19:47;;;;;;;0.82;0.82;;;;;;;-4.45;64.94;100375.31;5167841;28;20038;-79
2022/12/15 08:22:18;;;;;;;6.53;3.67;;;;;;;-4.42;64.73;100380.53;5149913;28;20331;-80
2022/12/15 08:24:49;;;;;;;1.52;1.42;;;;;;;-4.48;65.07;100378.66;5167037;28;20537;-80
2022/12/15 08:27:20;;;;;;;1.20;1.20;;;;;;;-4.48;64.99;100388.88;5168096;28;20060;-80
2022/12/15 08:29:50;;;;;;;0.90;0.90;;;;;;;-4.43;64.89;100383.91;5149721;28;20290;-80
2022/12/15 08:32:21;;;;;;;1.70;1.60;;;;;;;-4.43;64.87;100397.59;5164532;28;20034;-80
2022/12/15 08:34:52;;;;;;;1.45;1.45;;;;;;;-4.41;64.98;100397.63;5145176;28;20031;-80
2022/12/15 08:37:22;;;;;;;1.77;1.67;;;;;;;-4.38;65.25;100396.84;5150174;28;20038;-80
2022/12/15 08:39:53;;;;;;;2.35;2.25;;;;;;;-4.40;65.33;100393.38;5147937;28;20030;-80
2022/12/15 08:42:26;;;;;;;0.60;0.60;;;;;;;-4.41;65.75;100402.75;5150816;28;20037;-80
2022/12/15 08:44:57;;;;;;;2.35;2.25;;;;;;;-4.42;65.83;100396.75;5166658;28;20022;-80
2022/12/15 08:47:27;;;;;;;1.15;1.15;;;;;;;-4.40;65.50;100399.38;5166496;28;20720;-80
2022/12/15 08:49:58;;;;;;;1.27;1.27;;;;;;;-4.31;65.39;100402.19;5146177;28;20378;-80
2022/12/15 08:52:28;;;;;;;0.80;0.80;;;;;;;-4.32;65.44;100408.13;5165763;28;20046;-80
2022/12/15 08:54:59;;;;;;;0.93;0.93;;;;;;;-4.33;65.74;100398.72;5149178;28;20038;-81
2022/12/15 08:57:29;;;;;;;1.30;1.30;;;;;;;-4.31;65.51;100409.88;5149838;28;20429;-81
2022/12/15 08:59:59;;;;;;;3.92;3.55;;;;;;;-4.27;65.38;100410.84;5145671;28;20092;-81
2022/12/15 09:02:31;;;;;;;0.40;0.40;;;;;;;-4.29;65.22;100412.47;5148702;28;20034;-81
2022/12/15 09:05:01;;;;;;;0.60;0.60;;;;;;;-4.29;65.33;100407.34;5165674;28;20042;-79
2022/12/15 09:07:33;;;;;;;1.52;1.48;;;;;;;-4.27;65.49;100413.41;5158857;28;20030;-78
2022/12/15 09:10:04;;;;;;;1.20;1.20;;;;;;;-4.25;65.66;100414.28;5165088;28;20033;-78
2022/12/15 09:12:37;;;;;;;0.73;0.73;;;;;;;-4.21;65.13;100421.25;5162550;28;20032;-78
2022/12/15 09:15:08;;;;;;;1.83;1.70;;;;;;;-4.15;65.07;100423.97;5148918;28;20142;-78
2022/12/15 09:17:39;;;;;;;0.30;0.30;;;;;;;-4.23;65.57;100432.28;5147545;28;20050;-78
2022/12/15 09:20:10;;;;;;;0.85;0.70;;;;;;;-4.19;65.80;100440.09;5162615;28;20097;-78
2022/12/15 09:22:40;;;;;;;1.02;1.02;;;;;;;-4.27;65.70;100436.44;5147913;28;20026;-78
2022/12/15 09:25:11;;;;;;;0.50;0.50;;;;;;;-4.22;65.85;100437.44;5147002;28;20038;-80
2022/12/15 09:27:41;;;;;;;0.50;0.50;;;;;;;-4.25;65.68;100437.34;5160579;28;20034;-79
2022/12/15 09:30:12;;;;;;;2.20;2.05;;;;;;;-4.22;65.83;100434.88;5148829;28;20065;-78
2022/12/15 09:32:43;;;;;;;1.77;1.67;;;;;;;-4.21;65.53;100431.50;5148789;28;20093;-79
2022/12/15 09:35:13;;;;;;;0.60;0.60;;;;;;;-4.19;65.91;100434.97;5165647;28;20062;-78
2022/12/15 09:37:44;;;;;;;1.38;1.38;;;;;;;-4.18;65.87;100431.59;5165792;28;20049;-79
2022/12/15 09:40:14;;;;;;;0.60;0.60;;;;;;;-4.13;65.58;100445.41;5160651;28;20833;-78
2022/12/15 09:42:55;;;;;;;0.50;0.50;;;;;;;-4.10;65.77;100452.28;5164388;28;20038;-79
2022/12/15 09:45:37;;;;;;;1.65;1.65;;;;;;;-4.07;65.69;100459.19;5152219;28;20122;-79
2022/12/15 09:48:15;;;;;;;0.55;0.55;;;;;;;-4.15;66.40;100456.44;5175319;28;20496;-79
2022/12/15 09:50:49;;;;;;;2.45;2.35;;;;;;;-4.12;66.50;100457.38;5144988;28;20051;-79
2022/12/15 09:53:24;;;;;;;3.30;3.13;;;;;;;-4.15;66.72;100461.56;5168560;28;20030;-79
2022/12/15 09:56:17;;;;;;;1.27;1.23;;;;;;;-4.12;66.96;100466.75;5165609;28;20049;-79
2022/12/15 09:59:02;;;;;;;3.00;2.80;;;;;;;-4.12;67.06;100464.19;5181513;28;20536;-79
2022/12/15 10:01:54;;;;;;;1.38;1.38;;;;;;;-4.09;66.93;100464.28;5164815;28;20034;-79
2022/12/15 10:05:07;;;;;;;1.48;1.42;;;;;;;-4.01;67.52;100461.94;5170470;28;20065;-79
2022/12/15 10:07:45;;;;;;;8.27;2.45;;;;;;;-3.88;66.68;100455.47;5156851;28;20042;-79
2022/12/15 10:10:18;;;;;;;2.65;1.63;;;;;;;-3.93;66.74;100457.03;5164592;28;20090;-80
2022/12/15 10:12:52;;;;;;;2.25;2.15;;;;;;;-3.96;67.41;100453.53;5165758;28;20580;-79
2022/12/15 10:15:25;;;;;;;2.55;2.38;;;;;;;-3.92;67.78;100459.63;5165135;28;20042;-79
2022/12/15 10:18:05;;;;;;;2.60;2.42;;;;;;;-3.83;66.96;100459.03;5165455;28;20548;-78
2022/12/15 10:20:35;;;;;;;0.88;0.88;;;;;;;-3.73;67.31;100460.13;5164489;28;20117;-80
2022/12/15 10:23:15;;;;;;;6.05;5.43;;;;;;;-3.78;67.88;100461.72;5166910;28;20077;-80
2022/12/15 10:25:50;;;;;;;2.15;2.05;;;;;;;-3.69;67.59;100467.09;5167094;28;20051;-80
2022/12/15 10:28:31;;;;;;;1.85;1.75;;;;;;;-3.68;68.41;100462.00;5166728;28;20069;-78
2022/12/15 10:31:15;;;;;;;1.90;1.75;;;;;;;-3.55;68.50;100470.88;5161756;28;20073;-79
2022/12/15 10:33:50;;;;;;;;;;;;;;;-3.52;67.90;100473.53;5167849;28;20026;-79
2022/12/15 10:36:20;;;;;;;2.10;2.00;;;;;;;-3.50;68.53;100471.88;5160180;28;19968;-79
2022/12/15 10:38:51;;;;;;;5.15;4.63;;;;;;;-3.50;68.41;100469.28;5171723;28;20034;-80
2022/12/15 10:41:25;;;;;;;3.08;2.88;;;;;;;-3.43;68.22;100475.47;5172835;28;20030;-80
2022/12/15 10:43:56;;;;;;;1.42;1.42;;;;;;;-3.42;68.66;100482.34;5164961;28;20033;-80
2022/12/15 10:46:29;;;;;;;1.98;1.88;;;;;;;-3.33;68.78;100467.19;5130609;28;20022;-80
2022/12/15 10:49:23;;;;;;;1.38;1.38;;;;;;;-3.34;68.72;100460.31;5165245;28;20038;-80
2022/12/15 10:51:56;;;;;;;1.17;1.17;;;;;;;-3.25;68.62;100467.34;5158249;28;20080;-80
2022/12/15 10:54:42;;;;;;;3.88;3.60;;;;;;;-3.27;68.99;100463.91;5128080;28;20050;-79
2022/12/15 10:57:29;;;;;;;2.05;1.95;;;;;;;-3.26;70.44;100463.06;5147326;28;20093;-79
2022/12/15 11:00:27;;;;;;;2.40;2.30;;;;;;;-3.22;69.60;100452.06;5155857;28;20125;-80
2022/12/15 11:02:58;;;;;;;9.32;3.70;;;;;;;-3.24;70.27;100440.03;5150656;28;20133;-80
2022/12/15 11:05:29;;;;;;;1.08;1.08;;;;;;;-3.14;68.92;100443.66;5142787;28;20088;-80
2022/12/15 11:08:15;;;;;;;2.08;1.95;;;;;;;-3.09;69.65;100444.63;5145819;28;20113;-81
2022/12/15 11:14:05;;;;;;;1.20;1.20;;;;;;;-3.02;69.60;100446.53;5162522;28;20022;-80
2022/12/15 11:16:45;;;;;;;2.88;2.53;;;;;;;-2.97;69.29;100431.25;5154265;28;20046;-80
2022/12/15 11:19:22;;;;;;;3.50;3.17;;;;;;;-2.97;70.56;100432.09;5161050;28;20505;-80
2022/12/15 11:21:58;;;;;;;1.67;1.63;;;;;;;-2.91;70.84;100434.81;5148206;28;20123;-80
2022/12/15 11:24:41;;;;;;;1.10;1.10;;;;;;;-2.68;69.75;100434.47;5145311;28;20069;-80
2022/12/15 11:27:32;;;;;;;2.20;2.10;;;;;;;-2.86;69.89;100427.22;5151280;28;20694;-79
2022/12/15 11:30:09;;;;;;;3.28;2.97;;;;;;;-2.82;69.81;100434.16;5156984;28;20292;-80
2022/12/15 11:32:47;;;;;;;1.02;1.00;;;;;;;-2.72;69.55;100430.09;5143431;28;20524;-80
2022/12/15 11:35:29;;;;;;;0.98;0.98;;;;;;;-2.70;70.24;100434.44;5147362;28;20030;-80
2022/12/15 11:38:16;;;;;;;2.25;2.15;;;;;;;-2.67;70.47;100440.47;5157621;28;20406;-80
2022/12/15 11:40:50;;;;;;;3.40;3.17;;;;;;;-2.65;71.06;100439.69;5152003;28;20042;-80
2022/12/15 11:43:57;;;;;;;1.25;1.25;;;;;;;-2.55;70.78;100443.31;5159784;28;20023;-80
2022/12/15 11:46:39;;;;;;;1.20;1.20;;;;;;;-2.60;71.03;100432.94;5164307;28;20066;-81
2022/12/15 11:49:30;;;;;;;1.05;1.05;;;;;;;-2.49;71.00;100443.47;5147833;28;20039;-80
2022/12/15 11:52:16;;;;;;;4.45;4.18;;;;;;;-2.59;72.37;100434.66;5179620;28;20105;-80
2022/12/15 11:54:54;;;;;;;4.93;2.35;;;;;;;-2.46;71.86;100430.66;5148392;28;20085;-80
2022/12/15 11:57:36;;;;;;;1.58;1.55;;;;;;;-2.37;71.50;100427.44;5162599;28;20065;-80
2022/12/15 12:00:18;;;;;;;0.65;0.65;;;;;;;-2.43;71.42;100432.41;5146121;28;20533;-80
2022/12/15 12:03:04;;;;;;;2.05;1.90;;;;;;;-2.38;71.69;100430.84;5155329;28;20038;-79
2022/12/15 12:06:01;;;;;;;2.47;2.38;;;;;;;-2.30;70.53;100428.41;5148489;28;20088;-79
2022/12/15 12:08:45;;;;;;;0.50;0.50;;;;;;;-2.24;70.32;100434.56;5129392;28;20053;-80
2022/12/15 12:11:31;;;;;;;4.82;2.97;;;;;;;-2.19;70.58;100426.94;5160894;28;20169;-80
2022/12/15 12:14:39;;;;;;;4.22;4.03;;;;;;;-2.14;70.80;100424.47;5161947;28;20030;-79
2022/12/15 12:17:41;;;;;;;4.05;3.53;;;;;;;-2.15;70.55;100422.72;5139256;28;20022;-80
2022/12/15 12:20:20;;;;;;;3.53;2.10;;;;;;;-2.04;69.97;100428.97;5161961;28;20046;-80
2022/12/15 12:23:19;;;;;;;1.95;1.85;;;;;;;-2.01;70.27;100428.16;5167619;28;20038;-79
2022/12/15 12:26:18;;;;;;;1.90;1.80;;;;;;;-2.02;70.92;100423.84;5144251;28;20058;-79
2022/12/15 12:29:05;;;;;;;1.10;1.10;;;;;;;-2.07;71.87;100427.19;5155475;28;20113;-79
2022/12/15 12:32:15;;;;;;;4.53;4.13;;;;;;;-2.02;71.17;100416.97;5159156;28;20062;-81
2022/12/15 12:35:07;;;;;;;1.65;1.55;;;;;;;-1.94;70.80;100407.72;5178961;28;20046;-79
2022/12/15 12:37:43;;;;;;;2.70;1.85;;;;;;;-1.85;70.76;100388.13;5141816;28;20037;-80
2022/12/15 12:40:49;;;;;;;2.63;2.53;;;;;;;-1.86;70.78;100387.28;5146356;28;20915;-79
2022/12/15 12:43:40;;;;;;;2.03;1.95;;;;;;;-1.85;71.27;100386.47;5105804;28;20205;-80
2022/12/15 12:46:21;;;;;;;2.05;1.95;;;;;;;-1.81;71.27;100387.38;5146288;28;20053;-82
2022/12/15 12:49:38;;;;;;;0.55;0.55;;;;;;;-1.78;70.94;100384.88;5158797;28;20110;-81
2022/12/15 12:52:31;;;;;;;3.33;3.13;;;;;;;-1.81;71.66;100383.09;5140829;28;20094;-80
2022/12/15 12:55:25;;;;;;;5.87;3.03;;;;;;;-1.77;71.79;100381.44;5169481;28;20057;-86
2022/12/15 12:57:55;;;;;;;0.93;0.93;;;;;;;-1.80;71.49;100378.81;5165146;28;20143;-81
2022/12/15 13:00:28;;;;;;;1.60;1.55;;;;;;;-1.65;71.32;100381.66;5163936;28;20679;-81
2022/12/15 13:03:15;;;;;;;1.52;1.48;;;;;;;-1.69;71.21;100367.00;5139264;28;20038;-80
2022/12/15 13:05:47;;;;;;;2.58;2.42;;;;;;;-1.64;70.97;100360.25;5159418;28;20033;-81
2022/12/15 13:08:26;;;;;;;2.83;2.63;;;;;;;-1.59;70.75;100353.47;5143689;28;20096;-81
2022/12/15 13:11:35;;;;;;;2.30;1.95;;;;;;;-1.66;71.54;100346.47;5142750;28;20030;-82
2022/12/15 13:14:14;;;;;;;7.65;5.32;;;;;;;-1.55;70.70;100348.38;5129492;28;20052;-81
2022/12/15 13:16:46;;;;;;;3.53;3.33;;;;;;;-1.56;71.26;100344.91;5155625;28;20401;-84
2022/12/15 13:19:55;;;;;;;1.38;1.38;;;;;;;-1.51;71.14;100326.97;5145233;28;20080;-82
2022/12/15 13:22:41;;;;;;;4.53;4.10;;;;;;;-1.49;71.06;100339.06;5132374;28;20027;-82
2022/12/15 13:25:43;;;;;;;2.08;1.13;;;;;;;-1.44;71.15;100326.22;5127057;28;20481;-85
2022/12/15 13:28:16;;;;;;;4.65;4.22;;;;;;;-1.44;70.99;100316.81;5159342;28;20101;-82
2022/12/15 13:31:21;;;;;;;3.17;3.00;;;;;;;-1.35;71.30;100310.94;5133809;28;20077;-84
2022/12/15 13:34:02;;;;;;;1.25;1.23;;;;;;;-1.45;71.39;100309.94;5125428;28;20031;-83
2022/12/15 13:36:35;;;;;;;1.52;1.52;;;;;;;-1.47;72.20;100318.47;5133942;28;20046;-83
2022/12/15 13:39:11;;;;;;;5.05;4.57;;;;;;;-1.44;71.17;100303.06;5161337;28;20085;-83
2022/12/15 13:41:46;;;;;;;4.90;4.45;;;;;;;-1.46;71.17;100297.06;5149204;28;20098;-81
2022/12/15 13:44:27;;;;;;;2.03;1.92;;;;;;;-1.40;70.87;100292.00;5188274;28;20031;-87
2022/12/15 13:47:22;;;;;;;3.63;3.40;;;;;;;-1.42;71.00;100278.22;5147024;28;20026;-80
2022/12/15 13:50:13;;;;;;;2.00;1.90;;;;;;;-1.52;72.12;100289.22;5144813;28;20114;-82
2022/12/15 13:52:50;;;;;;;4.47;3.92;;;;;;;-1.41;71.23;100289.41;5148360;28;20269;-82
2022/12/15 13:55:32;;;;;;;3.65;3.20;;;;;;;-1.51;71.62;100284.13;5152936;28;20034;-83
2022/12/15 13:58:15;;;;;;;2.75;2.50;;;;;;;-1.49;72.03;100294.44;5153481;28;20030;-81
2022/12/15 14:00:54;;;;;;;4.72;4.32;;;;;;;-1.45;71.35;100294.50;5155131;28;21052;-83
2022/12/15 14:03:25;;;;;;;5.25;3.75;;;;;;;-1.44;71.12;100295.34;5142281;28;20426;-85
2022/12/15 14:05:57;;;;;;;8.27;5.22;;;;;;;-1.42;70.91;100293.66;5150366;28;20026;-81
2022/12/15 14:08:29;;;;;;;1.75;1.67;;;;;;;-1.47;71.40;100295.31;5168487;28;20060;-85
2022/12/15 14:11:01;;;;;;;4.97;4.05;;;;;;;-1.63;71.89;100289.94;5161048;28;20031;-84
2022/12/15 14:13:35;;;;;;;1.90;1.80;;;;;;;-1.49;70.96;100284.13;5145448;28;20031;-82
2022/12/15 14:16:13;;;;;;;2.90;1.98;;;;;;;-1.44;70.95;100277.34;5164086;28;20046;-81
2022/12/15 14:19:04;;;;;;;2.55;2.42;;;;;;;-1.53;71.35;100272.09;5150252;28;20034;-82
2022/12/15 14:21:37;;;;;;;3.88;3.45;;;;;;;-1.45;70.38;100263.63;5142916;28;20027;-82
2022/12/15 14:24:29;;;;;;;2.80;2.60;;;;;;;-1.49;70.82;100266.13;5162606;28;20560;-82
2022/12/15 14:26:59;;;;;;;2.00;1.90;;;;;;;-1.48;70.45;100257.56;5165006;28;20061;-81
2022/12/15 14:29:30;;;;;;;6.45;4.72;;;;;;;-1.55;71.04;100261.75;5133742;28;20046;-81